sensor_id;sensor_type;location;lat;lon;timestamp;temperature;humidity
1992;DHT22;997;48.448;8.924;2023-02-04T04:02:01;7.50;99.90
1992;DHT22;997;48.448;8.924;2023-02-04T04:04:27;7.60;99.90
1992;DHT22;997;48.448;8.924;2023-02-04T04:06:53;7.60;99.90
1992;DHT22;997;48.448;8.924;2023-02-04T04:09:18;7.60;99.90
1992;DHT22;997;48.448;8.924;2023-02-04T04:11:44;7.60;99.90
1992;DHT22;997;48.448;8.924;2023-02-04T04:14:10;7.40;99.90
1992;DHT22;997;48.448;8.924;2023-02-04T04:19:11;7.30;99.90
1992;DHT22;997;48.448;8.924;2023-02-04T04:21:37;7.20;99.90
1992;DHT22;997;48.448;8.924;2023-02-04T04:24:03;7.30;99.90
1992;DHT22;997;48.448;8.924;2023-02-04T04:26:28;7.40;99.90
1992;DHT22;997;48.448;8.924;2023-02-04T04:28:54;7.40;99.90
1992;DHT22;997;48.448;8.924;2023-02-04T04:31:20;7.20;99.90
1992;DHT22;997;48.448;8.924;2023-02-04T04:33:45;7.00;99.90
1992;DHT22;997;48.448;8.924;2023-02-04T04:36:11;7.00;99.90
1992;DHT22;997;48.448;8.924;2023-02-04T04:38:36;6.90;99.90
1992;DHT22;997;48.448;8.924;2023-02-04T04:41:02;6.80;99.90
1992;DHT22;997;48.448;8.924;2023-02-04T04:43:28;6.80;99.90
1992;DHT22;997;48.448;8.924;2023-02-04T04:45:54;7.00;99.90
1992;DHT22;997;48.448;8.924;2023-02-04T04:48:19;7.10;99.90
1992;DHT22;997;48.448;8.924;2023-02-04T04:50:46;7.20;99.90
1992;DHT22;997;48.448;8.924;2023-02-04T04:53:11;7.40;99.90
1992;DHT22;997;48.448;8.924;2023-02-04T04:55:37;7.50;99.90
1992;DHT22;997;48.448;8.924;2023-02-04T04:58:04;7.60;99.90
1992;DHT22;997;48.448;8.924;2023-02-04T05:00:29;7.70;99.90
1992;DHT22;997;48.448;8.924;2023-02-04T05:02:55;7.70;99.90
1992;DHT22;997;48.448;8.924;2023-02-04T05:05:21;7.70;99.90
1992;DHT22;997;48.448;8.924;2023-02-04T05:07:46;7.60;99.90
1992;DHT22;997;48.448;8.924;2023-02-04T05:10:12;7.50;99.90
1992;DHT22;997;48.448;8.924;2023-02-04T05:12:37;7.40;99.90
1992;DHT22;997;48.448;8.924;2023-02-04T05:15:04;7.20;99.90
1992;DHT22;997;48.448;8.924;2023-02-04T05:17:29;7.20;99.90
1992;DHT22;997;48.448;8.924;2023-02-04T05:19:55;7.20;99.90
1992;DHT22;997;48.448;8.924;2023-02-04T05:22:21;7.10;99.90
1992;DHT22;997;48.448;8.924;2023-02-04T05:24:46;7.00;99.90
1992;DHT22;997;48.448;8.924;2023-02-04T05:27:12;6.90;99.90
1992;DHT22;997;48.448;8.924;2023-02-04T05:29:38;6.70;99.90
1992;DHT22;997;48.448;8.924;2023-02-04T05:32:03;6.70;99.90
1992;DHT22;997;48.448;8.924;2023-02-04T05:34:29;6.60;99.90
1992;DHT22;997;48.448;8.924;2023-02-04T05:36:55;6.50;99.90
1992;DHT22;997;48.448;8.924;2023-02-04T05:39:20;6.50;99.90
1992;DHT22;997;48.448;8.924;2023-02-04T05:41:46;6.40;99.90
1992;DHT22;997;48.448;8.924;2023-02-04T05:44:11;6.20;99.90
1992;DHT22;997;48.448;8.924;2023-02-04T05:46:37;6.10;99.90
1992;DHT22;997;48.448;8.924;2023-02-04T05:49:04;6.00;99.90
1992;DHT22;997;48.448;8.924;2023-02-04T05:51:30;5.90;99.90
1992;DHT22;997;48.448;8.924;2023-02-04T05:53:56;5.90;99.90
1992;DHT22;997;48.448;8.924;2023-02-04T05:56:21;5.80;99.90
1992;DHT22;997;48.448;8.924;2023-02-04T05:58:47;5.70;99.90
1992;DHT22;997;48.448;8.924;2023-02-04T06:01:13;5.70;99.90
1992;DHT22;997;48.448;8.924;2023-02-04T06:03:38;5.70;99.90
1992;DHT22;997;48.448;8.924;2023-02-04T06:06:04;5.80;99.90
1992;DHT22;997;48.448;8.924;2023-02-04T06:08:30;5.70;99.90
1992;DHT22;997;48.448;8.924;2023-02-04T06:10:55;5.80;99.90
1992;DHT22;997;48.448;8.924;2023-02-04T06:13:21;5.90;99.90
1992;DHT22;997;48.448;8.924;2023-02-04T06:15:47;6.00;99.90
1992;DHT22;997;48.448;8.924;2023-02-04T06:18:12;6.20;99.90
1992;DHT22;997;48.448;8.924;2023-02-04T06:20:38;6.30;99.90
1992;DHT22;997;48.448;8.924;2023-02-04T06:23:04;6.30;99.90
1992;DHT22;997;48.448;8.924;2023-02-04T06:25:29;6.40;99.90
1992;DHT22;997;48.448;8.924;2023-02-04T06:27:55;6.40;99.90
1992;DHT22;997;48.448;8.924;2023-02-04T06:30:21;6.50;99.90
1992;DHT22;997;48.448;8.924;2023-02-04T06:32:47;6.60;99.90
1992;DHT22;997;48.448;8.924;2023-02-04T06:35:12;6.60;99.90
1992;DHT22;997;48.448;8.924;2023-02-04T06:37:39;6.70;99.90
1992;DHT22;997;48.448;8.924;2023-02-04T06:40:06;6.70;99.90
1992;DHT22;997;48.448;8.924;2023-02-04T06:42:33;6.90;99.90
1992;DHT22;997;48.448;8.924;2023-02-04T06:44:58;7.00;99.90
1992;DHT22;997;48.448;8.924;2023-02-04T06:47:24;7.10;99.90
1992;DHT22;997;48.448;8.924;2023-02-04T06:49:50;7.20;99.90
1992;DHT22;997;48.448;8.924;2023-02-04T06:52:15;7.10;99.90
1992;DHT22;997;48.448;8.924;2023-02-04T06:57:16;7.20;99.90
1992;DHT22;997;48.448;8.924;2023-02-04T06:59:42;7.30;99.90
1992;DHT22;997;48.448;8.924;2023-02-04T07:02:10;7.40;99.90
1992;DHT22;997;48.448;8.924;2023-02-04T07:04:36;7.40;99.90
1992;DHT22;997;48.448;8.924;2023-02-04T07:07:02;7.40;99.90
1992;DHT22;997;48.448;8.924;2023-02-04T07:14:39;7.40;99.90
1992;DHT22;997;48.448;8.924;2023-02-04T09:03:19;7.30;99.90
1992;DHT22;997;48.448;8.924;2023-02-04T09:05:56;7.10;99.90
1992;DHT22;997;48.448;8.924;2023-02-04T10:21:16;8.20;99.90
1992;DHT22;997;48.448;8.924;2023-02-04T10:23:45;8.20;99.90
1992;DHT22;997;48.448;8.924;2023-02-04T10:26:13;8.30;99.90
1992;DHT22;997;48.448;8.924;2023-02-04T10:28:39;8.20;99.90
1992;DHT22;997;48.448;8.924;2023-02-04T10:31:06;8.30;99.90
1992;DHT22;997;48.448;8.924;2023-02-04T10:33:34;8.40;99.90
1992;DHT22;997;48.448;8.924;2023-02-04T10:36:15;8.50;99.90
1992;DHT22;997;48.448;8.924;2023-02-04T10:38:41;8.50;99.90
1992;DHT22;997;48.448;8.924;2023-02-04T10:41:13;8.60;99.90
1992;DHT22;997;48.448;8.924;2023-02-04T10:43:38;8.70;99.90
1992;DHT22;997;48.448;8.924;2023-02-04T10:46:04;8.80;99.90
1992;DHT22;997;48.448;8.924;2023-02-04T10:48:40;8.80;99.90
1992;DHT22;997;48.448;8.924;2023-02-04T10:51:10;8.90;99.90
1992;DHT22;997;48.448;8.924;2023-02-04T10:53:37;8.80;99.90
1992;DHT22;997;48.448;8.924;2023-02-04T10:56:21;8.80;99.90
1992;DHT22;997;48.448;8.924;2023-02-04T10:58:47;8.70;99.90
1992;DHT22;997;48.448;8.924;2023-02-04T11:01:14;8.60;99.90
1992;DHT22;997;48.448;8.924;2023-02-04T11:03:41;8.70;99.90
1992;DHT22;997;48.448;8.924;2023-02-04T11:06:18;8.60;99.90
1992;DHT22;997;48.448;8.924;2023-02-04T11:08:44;8.70;99.90
1992;DHT22;997;48.448;8.924;2023-02-04T11:11:20;8.80;99.90
1992;DHT22;997;48.448;8.924;2023-02-04T11:16:46;8.90;99.90
1992;DHT22;997;48.448;8.924;2023-02-04T11:19:13;9.00;99.90
1992;DHT22;997;48.448;8.924;2023-02-04T11:21:43;8.80;99.90
1992;DHT22;997;48.448;8.924;2023-02-04T11:29:25;8.90;99.90
1992;DHT22;997;48.448;8.924;2023-02-04T11:39:46;8.90;99.90
1992;DHT22;997;48.448;8.924;2023-02-04T11:42:40;8.80;99.90
1992;DHT22;997;48.448;8.924;2023-02-04T11:45:33;8.80;99.90
1992;DHT22;997;48.448;8.924;2023-02-04T11:48:02;8.80;99.90
1992;DHT22;997;48.448;8.924;2023-02-04T11:50:31;8.80;99.90
1992;DHT22;997;48.448;8.924;2023-02-04T11:52:58;8.90;99.90
1992;DHT22;997;48.448;8.924;2023-02-04T11:55:28;8.70;99.90
1992;DHT22;997;48.448;8.924;2023-02-04T11:57:55;8.60;99.90
1992;DHT22;997;48.448;8.924;2023-02-04T12:00:28;8.50;99.90
1992;DHT22;997;48.448;8.924;2023-02-04T12:03:05;8.30;99.90
1992;DHT22;997;48.448;8.924;2023-02-04T12:05:45;8.10;99.90
1992;DHT22;997;48.448;8.924;2023-02-04T12:08:24;8.00;99.90
1992;DHT22;997;48.448;8.924;2023-02-04T12:13:28;7.80;99.90
1992;DHT22;997;48.448;8.924;2023-02-04T12:16:01;7.70;99.90
1992;DHT22;997;48.448;8.924;2023-02-04T12:18:27;7.70;99.90
1992;DHT22;997;48.448;8.924;2023-02-04T12:20:55;7.70;99.90
1992;DHT22;997;48.448;8.924;2023-02-04T12:23:21;7.70;99.90
1992;DHT22;997;48.448;8.924;2023-02-04T12:25:48;7.80;99.90
1992;DHT22;997;48.448;8.924;2023-02-04T12:28:14;7.80;99.90
1992;DHT22;997;48.448;8.924;2023-02-04T12:30:40;7.80;99.90
1992;DHT22;997;48.448;8.924;2023-02-04T12:33:05;7.90;99.90
1992;DHT22;997;48.448;8.924;2023-02-04T12:35:32;7.80;99.90
1992;DHT22;997;48.448;8.924;2023-02-04T12:37:58;8.00;99.90
1992;DHT22;997;48.448;8.924;2023-02-04T12:40:23;8.00;99.90
1992;DHT22;997;48.448;8.924;2023-02-04T12:42:49;8.10;99.90
1992;DHT22;997;48.448;8.924;2023-02-04T12:45:16;8.30;99.90
1992;DHT22;997;48.448;8.924;2023-02-04T12:47:42;8.40;99.90
1992;DHT22;997;48.448;8.924;2023-02-04T12:50:10;8.40;99.90
1992;DHT22;997;48.448;8.924;2023-02-04T12:52:36;8.30;99.90
1992;DHT22;997;48.448;8.924;2023-02-04T12:55:04;8.50;99.90
1992;DHT22;997;48.448;8.924;2023-02-04T12:57:32;8.60;99.90
1992;DHT22;997;48.448;8.924;2023-02-04T12:59:58;8.60;99.90
1992;DHT22;997;48.448;8.924;2023-02-04T13:02:26;8.70;99.90
1992;DHT22;997;48.448;8.924;2023-02-04T13:04:52;8.90;99.90
1992;DHT22;997;48.448;8.924;2023-02-04T13:07:17;9.20;99.90
1992;DHT22;997;48.448;8.924;2023-02-04T13:09:43;9.50;99.90
1992;DHT22;997;48.448;8.924;2023-02-04T13:12:12;9.70;99.90
1992;DHT22;997;48.448;8.924;2023-02-04T13:14:39;9.40;99.90
1992;DHT22;997;48.448;8.924;2023-02-04T13:17:06;9.30;99.90
1992;DHT22;997;48.448;8.924;2023-02-04T13:19:31;9.30;99.90
1992;DHT22;997;48.448;8.924;2023-02-04T13:21:58;9.30;99.90
1992;DHT22;997;48.448;8.924;2023-02-04T13:24:24;9.30;99.90
1992;DHT22;997;48.448;8.924;2023-02-04T13:26:51;9.40;99.90
1992;DHT22;997;48.448;8.924;2023-02-04T13:29:17;9.20;99.90
1992;DHT22;997;48.448;8.924;2023-02-04T13:31:43;9.30;99.90
1992;DHT22;997;48.448;8.924;2023-02-04T13:34:09;9.20;99.90
1992;DHT22;997;48.448;8.924;2023-02-04T13:36:34;9.20;99.90
1992;DHT22;997;48.448;8.924;2023-02-04T13:39:00;9.20;99.90
1992;DHT22;997;48.448;8.924;2023-02-04T13:41:26;9.30;99.90
1992;DHT22;997;48.448;8.924;2023-02-04T13:43:52;9.30;99.90
1992;DHT22;997;48.448;8.924;2023-02-04T13:46:18;9.30;99.90
1992;DHT22;997;48.448;8.924;2023-02-04T13:48:44;9.50;99.90
1992;DHT22;997;48.448;8.924;2023-02-04T13:51:10;9.40;99.90
1992;DHT22;997;48.448;8.924;2023-02-04T13:53:36;9.40;99.90
1992;DHT22;997;48.448;8.924;2023-02-04T13:56:01;9.50;99.90
1992;DHT22;997;48.448;8.924;2023-02-04T13:58:27;9.50;99.90
1992;DHT22;997;48.448;8.924;2023-02-04T14:00:53;9.40;99.90
1992;DHT22;997;48.448;8.924;2023-02-04T14:03:28;9.40;99.90
1992;DHT22;997;48.448;8.924;2023-02-04T14:05:54;9.50;99.90
1992;DHT22;997;48.448;8.924;2023-02-04T14:08:21;9.60;99.90
1992;DHT22;997;48.448;8.924;2023-02-04T14:10:47;9.80;99.90
1992;DHT22;997;48.448;8.924;2023-02-04T14:13:13;9.90;99.90
1992;DHT22;997;48.448;8.924;2023-02-04T14:15:39;9.90;99.90
1992;DHT22;997;48.448;8.924;2023-02-04T14:18:08;9.70;99.90
1992;DHT22;997;48.448;8.924;2023-02-04T14:20:35;9.80;99.90
1992;DHT22;997;48.448;8.924;2023-02-04T14:23:02;9.70;99.90
1992;DHT22;997;48.448;8.924;2023-02-04T14:25:28;9.60;99.90
1992;DHT22;997;48.448;8.924;2023-02-04T14:27:54;9.50;99.90
1992;DHT22;997;48.448;8.924;2023-02-04T14:30:23;9.20;99.90
1992;DHT22;997;48.448;8.924;2023-02-04T14:32:49;9.20;99.90
1992;DHT22;997;48.448;8.924;2023-02-04T14:35:15;9.20;99.90
1992;DHT22;997;48.448;8.924;2023-02-04T14:37:41;9.20;99.90
1992;DHT22;997;48.448;8.924;2023-02-04T14:40:09;9.30;99.90
1992;DHT22;997;48.448;8.924;2023-02-04T14:42:35;9.10;99.90
1992;DHT22;997;48.448;8.924;2023-02-04T14:45:04;9.10;99.90
1992;DHT22;997;48.448;8.924;2023-02-04T14:47:31;9.10;99.90
1992;DHT22;997;48.448;8.924;2023-02-04T14:49:59;9.10;99.90
1992;DHT22;997;48.448;8.924;2023-02-04T14:52:34;9.00;99.90
1992;DHT22;997;48.448;8.924;2023-02-04T14:55:00;9.30;99.90
1992;DHT22;997;48.448;8.924;2023-02-04T14:57:26;9.40;99.90
1992;DHT22;997;48.448;8.924;2023-02-04T14:59:52;9.50;99.90
1992;DHT22;997;48.448;8.924;2023-02-04T15:02:34;9.40;99.90
1992;DHT22;997;48.448;8.924;2023-02-04T15:05:15;9.30;99.90
1992;DHT22;997;48.448;8.924;2023-02-04T17:40:09;7.50;99.90
1992;DHT22;997;48.448;8.924;2023-02-04T17:42:38;7.50;99.90
1992;DHT22;997;48.448;8.924;2023-02-04T17:45:04;7.50;99.90
1992;DHT22;997;48.448;8.924;2023-02-04T17:47:34;7.50;99.90
1992;DHT22;997;48.448;8.924;2023-02-04T17:50:06;7.60;99.90
1992;DHT22;997;48.448;8.924;2023-02-04T17:52:34;7.50;99.90
1992;DHT22;997;48.448;8.924;2023-02-04T17:55:45;7.50;99.90
1992;DHT22;997;48.448;8.924;2023-02-04T17:57:52;7.50;99.90
1992;DHT22;997;48.448;8.924;2023-02-04T18:00:21;7.40;99.90
1992;DHT22;997;48.448;8.924;2023-02-04T18:02:49;7.30;99.90
1992;DHT22;997;48.448;8.924;2023-02-04T18:05:24;7.30;99.90
1992;DHT22;997;48.448;8.924;2023-02-04T18:08:10;7.20;99.90
1992;DHT22;997;48.448;8.924;2023-02-04T18:10:40;7.20;99.90
1992;DHT22;997;48.448;8.924;2023-02-04T18:15:44;7.20;99.90
1992;DHT22;997;48.448;8.924;2023-02-04T18:21:26;7.20;99.90
1992;DHT22;997;48.448;8.924;2023-02-04T18:24:24;7.20;99.90
1992;DHT22;997;48.448;8.924;2023-02-04T18:26:58;7.10;99.90
1992;DHT22;997;48.448;8.924;2023-02-04T18:31:53;7.00;99.90
1992;DHT22;997;48.448;8.924;2023-02-04T18:34:32;6.80;99.90
1992;DHT22;997;48.448;8.924;2023-02-04T18:37:02;6.70;99.90
1992;DHT22;997;48.448;8.924;2023-02-04T18:39:44;6.40;99.90
1992;DHT22;997;48.448;8.924;2023-02-04T18:42:13;6.20;99.90
1992;DHT22;997;48.448;8.924;2023-02-04T18:44:40;6.20;99.90
1992;DHT22;997;48.448;8.924;2023-02-04T18:47:27;6.20;99.90
1992;DHT22;997;48.448;8.924;2023-02-04T18:49:54;6.20;99.90
1992;DHT22;997;48.448;8.924;2023-02-04T18:52:20;6.20;99.90
1992;DHT22;997;48.448;8.924;2023-02-04T18:54:50;6.20;99.90
1992;DHT22;997;48.448;8.924;2023-02-04T18:57:35;6.20;99.90
1992;DHT22;997;48.448;8.924;2023-02-04T19:02:46;6.30;99.90
1992;DHT22;997;48.448;8.924;2023-02-04T19:05:32;6.30;99.90
1992;DHT22;997;48.448;8.924;2023-02-04T19:10:32;6.20;99.90
1992;DHT22;997;48.448;8.924;2023-02-04T19:13:23;6.00;99.90
1992;DHT22;997;48.448;8.924;2023-02-04T19:16:16;5.30;99.90
1992;DHT22;997;48.448;8.924;2023-02-04T19:18:46;4.70;99.90
1992;DHT22;997;48.448;8.924;2023-02-04T19:23:42;4.80;99.90
1992;DHT22;997;48.448;8.924;2023-02-04T19:26:35;4.80;99.90
1992;DHT22;997;48.448;8.924;2023-02-04T19:32:22;4.90;99.90
1992;DHT22;997;48.448;8.924;2023-02-04T19:34:46;4.80;99.90
1992;DHT22;997;48.448;8.924;2023-02-04T19:37:22;4.90;99.90
1992;DHT22;997;48.448;8.924;2023-02-04T19:39:53;4.90;99.90
1992;DHT22;997;48.448;8.924;2023-02-04T19:45:50;5.10;99.90
1992;DHT22;997;48.448;8.924;2023-02-04T19:48:37;5.10;99.90
1992;DHT22;997;48.448;8.924;2023-02-04T19:51:23;5.10;99.90
1992;DHT22;997;48.448;8.924;2023-02-04T19:54:18;5.10;99.90
